Time;durP1;ratioP1;P1;durP2;ratioP2;P2;SDS_P1;SDS_P2;PMS_P1;PMS_P2;Temp;Humidity;BMP_temperature;BMP_pressure;BME280_temperature;BME280_humidity;BME280_pressure;Samples;Min_cycle;Max_cycle;Signal;HPM_P1;HPM_P2
2022/07/13 00:01:22;;;;;;;3.60;2.58;;;;;;;;;;10040334;28;20045;-68
2022/07/13 00:06:16;;;;;;;9.70;2.80;;;;;;;;;;10031002;28;20049;-70
2022/07/13 00:11:10;;;;;;;7.95;3.22;;;;;;;;;;10029242;28;20079;-69
2022/07/13 00:16:04;;;;;;;8.18;3.75;;;;;;;;;;10027941;28;20480;-68
2022/07/13 00:20:58;;;;;;;7.25;3.38;;;;;;;;;;10027854;28;20054;-69
2022/07/13 00:25:52;;;;;;;8.18;2.95;;;;;;;;;;9996367;28;20100;-67
2022/07/13 00:30:45;;;;;;;8.40;3.42;;;;;;;;;;9993984;28;20058;-69
2022/07/13 00:35:38;;;;;;;6.72;4.22;;;;;;;;;;10016385;28;20073;-67
2022/07/13 00:40:33;;;;;;;7.53;3.78;;;;;;;;;;9997858;28;20132;-67
2022/07/13 00:45:26;;;;;;;9.20;3.58;;;;;;;;;;10015995;28;20551;-67
2022/07/13 00:50:22;;;;;;;7.05;4.03;;;;;;;;;;10024280;28;20050;-68
2022/07/13 00:55:16;;;;;;;4.53;3.60;;;;;;;;;;10027333;28;20060;-69
2022/07/13 01:00:11;;;;;;;7.55;3.85;;;;;;;;;;10026756;28;20058;-69
2022/07/13 01:05:07;;;;;;;4.65;3.78;;;;;;;;;;10029609;28;20057;-69
2022/07/13 01:10:05;;;;;;;7.43;3.45;;;;;;;;;;10036765;28;20148;-64
2022/07/13 01:14:59;;;;;;;;;;;;;;;;;;10028382;28;20041;-63
2022/07/13 01:19:53;;;;;;;9.07;3.10;;;;;;;;;;10038605;28;20380;-63
2022/07/13 01:24:46;;;;;;;5.45;3.13;;;;;;;;;;10007549;28;20054;-63
2022/07/13 01:29:41;;;;;;;5.78;2.95;;;;;;;;;;10031081;28;20563;-63
2022/07/13 01:34:35;;;;;;;8.82;3.17;;;;;;;;;;10019216;28;20053;-63
2022/07/13 01:39:29;;;;;;;9.80;5.05;;;;;;;;;;10022724;28;20062;-64
2022/07/13 01:44:23;;;;;;;7.00;3.50;;;;;;;;;;10046198;28;20358;-63
2022/07/13 01:49:18;;;;;;;14.20;5.68;;;;;;;;;;10062713;28;20049;-63
2022/07/13 01:54:12;;;;;;;5.65;4.07;;;;;;;;;;10046818;28;20489;-63
2022/07/13 01:59:06;;;;;;;7.75;3.40;;;;;;;;;;10055710;28;20111;-64
2022/07/13 02:03:59;;;;;;;10.20;4.85;;;;;;;;;;10053568;28;20073;-64
2022/07/13 02:08:54;;;;;;;7.30;3.80;;;;;;;;;;10038204;28;20057;-63
2022/07/13 02:13:48;;;;;;;6.70;4.20;;;;;;;;;;10060068;28;20070;-64
2022/07/13 02:18:43;;;;;;;10.10;4.25;;;;;;;;;;10029411;28;20057;-64
2022/07/13 02:23:37;;;;;;;5.13;3.88;;;;;;;;;;10037909;28;20144;-64
2022/07/13 02:28:30;;;;;;;12.70;5.85;;;;;;;;;;10044696;28;20050;-64
2022/07/13 02:33:23;;;;;;;8.20;4.05;;;;;;;;;;10037993;28;20132;-64
2022/07/13 02:38:18;;;;;;;7.28;4.40;;;;;;;;;;10021229;28;20077;-64
2022/07/13 02:43:11;;;;;;;6.60;5.22;;;;;;;;;;10006387;28;20072;-63
2022/07/13 02:48:07;;;;;;;6.13;5.05;;;;;;;;;;10024320;28;20096;-63
2022/07/13 02:53:01;;;;;;;7.18;5.20;;;;;;;;;;10027075;28;20042;-63
2022/07/13 02:57:55;;;;;;;7.55;6.32;;;;;;;;;;10015732;28;20062;-64
2022/07/13 03:02:49;;;;;;;12.10;6.35;;;;;;;;;;10037015;28;20053;-63
2022/07/13 03:07:45;;;;;;;5.65;5.13;;;;;;;;;;10021440;28;20112;-64
2022/07/13 03:12:40;;;;;;;8.38;5.50;;;;;;;;;;10035058;28;20419;-63
2022/07/13 03:17:35;;;;;;;11.80;5.40;;;;;;;;;;10044595;28;20042;-64
2022/07/13 03:22:32;;;;;;;;;;;;;;;;;;10059167;28;20057;-64
2022/07/13 03:27:26;;;;;;;6.32;4.80;;;;;;;;;;10032255;28;19987;-63
2022/07/13 03:32:20;;;;;;;7.55;5.60;;;;;;;;;;10029565;28;20049;-63
2022/07/13 03:37:16;;;;;;;7.50;4.90;;;;;;;;;;10028774;28;20087;-66
2022/07/13 03:42:09;;;;;;;9.35;6.15;;;;;;;;;;10023104;28;20104;-63
2022/07/13 03:47:06;;;;;;;7.75;5.78;;;;;;;;;;10025667;28;20095;-63
2022/07/13 03:52:00;;;;;;;9.40;5.40;;;;;;;;;;10047097;28;20167;-63
2022/07/13 03:56:55;;;;;;;8.88;6.40;;;;;;;;;;10019819;28;20041;-63
2022/07/13 04:01:49;;;;;;;7.10;5.70;;;;;;;;;;10046964;28;20147;-63
2022/07/13 04:06:42;;;;;;;10.65;6.65;;;;;;;;;;10065274;28;20042;-63
2022/07/13 04:11:37;;;;;;;7.20;6.43;;;;;;;;;;10040001;28;20053;-63
2022/07/13 04:16:32;;;;;;;9.57;6.22;;;;;;;;;;10051082;28;20052;-63
2022/07/13 04:21:26;;;;;;;8.02;5.82;;;;;;;;;;10045373;28;20057;-63
2022/07/13 04:26:20;;;;;;;7.80;5.95;;;;;;;;;;10055755;28;20046;-64
2022/07/13 04:31:14;;;;;;;8.50;6.53;;;;;;;;;;10051746;28;20046;-63
2022/07/13 04:36:09;;;;;;;9.10;6.78;;;;;;;;;;10039716;28;20128;-63
2022/07/13 04:41:05;;;;;;;9.48;6.35;;;;;;;;;;10029538;28;20126;-63
2022/07/13 04:46:02;;;;;;;9.60;6.32;;;;;;;;;;10021252;28;20476;-63
2022/07/13 04:50:57;;;;;;;16.85;7.03;;;;;;;;;;10020214;28;20061;-63
2022/07/13 04:55:51;;;;;;;9.55;8.18;;;;;;;;;;10055384;28;20528;-63
2022/07/13 05:00:44;;;;;;;15.40;8.50;;;;;;;;;;10040784;28;20064;-63
2022/07/13 05:05:57;;;;;;;12.40;8.85;;;;;;;;;;10040467;28;20088;-64
2022/07/13 05:10:51;;;;;;;15.65;11.02;;;;;;;;;;10023732;28;20520;-64
2022/07/13 05:15:45;;;;;;;26.10;16.33;;;;;;;;;;10053644;28;20149;-64
2022/07/13 05:20:43;;;;;;;21.20;15.25;;;;;;;;;;10063308;28;20103;-64
2022/07/13 05:25:37;;;;;;;26.90;21.60;;;;;;;;;;10034850;28;20051;-63
2022/07/13 05:30:31;;;;;;;24.33;19.20;;;;;;;;;;10015207;28;20561;-64
2022/07/13 05:35:26;;;;;;;25.55;22.20;;;;;;;;;;10020356;28;20108;-63
2022/07/13 05:40:21;;;;;;;23.80;19.23;;;;;;;;;;10015317;28;20057;-64
2022/07/13 05:45:16;;;;;;;24.13;17.83;;;;;;;;;;10001688;28;20097;-64
2022/07/13 05:50:14;;;;;;;25.65;18.73;;;;;;;;;;10012431;28;20046;-64
2022/07/13 05:55:18;;;;;;;26.00;19.35;;;;;;;;;;10013364;28;20400;-64
2022/07/13 06:00:13;;;;;;;20.75;18.38;;;;;;;;;;10013893;28;20058;-63
2022/07/13 06:05:09;;;;;;;22.65;18.40;;;;;;;;;;10024179;28;20050;-63
2022/07/13 06:10:05;;;;;;;20.77;16.67;;;;;;;;;;10012805;28;20046;-63
2022/07/13 06:14:59;;;;;;;22.33;16.05;;;;;;;;;;10027394;28;20095;-64
2022/07/13 06:19:53;;;;;;;20.17;14.98;;;;;;;;;;10027555;28;20414;-63
2022/07/13 06:24:48;;;;;;;18.73;13.77;;;;;;;;;;10017260;28;20050;-63
2022/07/13 06:29:42;;;;;;;15.15;13.60;;;;;;;;;;10015598;28;20064;-63
2022/07/13 06:34:36;;;;;;;18.17;15.23;;;;;;;;;;10019787;28;20057;-62
2022/07/13 06:39:30;;;;;;;20.92;15.27;;;;;;;;;;10021925;28;20049;-63
2022/07/13 06:44:25;;;;;;;18.38;13.40;;;;;;;;;;10033428;28;20057;-63
2022/07/13 06:49:19;;;;;;;16.70;13.18;;;;;;;;;;10033581;28;20401;-63
2022/07/13 06:54:15;;;;;;;9.13;7.72;;;;;;;;;;10029746;28;20060;-63
2022/07/13 06:59:11;;;;;;;9.65;8.75;;;;;;;;;;10028235;28;20062;-63
2022/07/13 07:04:05;;;;;;;8.68;7.78;;;;;;;;;;10015295;28;20050;-63
2022/07/13 07:08:59;;;;;;;11.02;6.40;;;;;;;;;;10025463;28;20508;-63
2022/07/13 07:13:53;;;;;;;11.65;7.22;;;;;;;;;;10015777;28;20138;-63
2022/07/13 07:18:48;;;;;;;8.45;6.82;;;;;;;;;;10028768;28;20060;-63
2022/07/13 07:24:02;;;;;;;9.20;5.22;;;;;;;;;;10028196;28;20050;-65
2022/07/13 07:28:56;;;;;;;10.35;5.32;;;;;;;;;;10038042;28;20488;-64
2022/07/13 07:33:50;;;;;;;9.23;5.53;;;;;;;;;;10010073;28;20616;-64
2022/07/13 07:38:44;;;;;;;9.55;5.35;;;;;;;;;;10008614;28;20379;-64
2022/07/13 07:43:39;;;;;;;8.80;5.15;;;;;;;;;;10034892;28;20400;-63
2022/07/13 07:48:33;;;;;;;8.95;5.25;;;;;;;;;;10009995;28;20512;-64
2022/07/13 07:53:26;;;;;;;10.60;3.92;;;;;;;;;;10016613;28;20060;-64
2022/07/13 07:58:21;;;;;;;4.65;3.03;;;;;;;;;;10023512;28;20046;-63
2022/07/13 08:03:15;;;;;;;3.55;3.22;;;;;;;;;;10025152;28;20088;-66
2022/07/13 08:08:09;;;;;;;3.13;2.92;;;;;;;;;;10023908;28;20049;-65
2022/07/13 08:13:04;;;;;;;4.22;3.72;;;;;;;;;;10027290;28;20053;-63
2022/07/13 08:17:58;;;;;;;8.93;2.92;;;;;;;;;;10027101;28;20500;-76
2022/07/13 08:22:53;;;;;;;4.72;2.53;;;;;;;;;;10024792;28;20045;-75
2022/07/13 08:27:48;;;;;;;7.40;2.92;;;;;;;;;;10025240;28;20534;-76
2022/07/13 08:32:42;;;;;;;6.00;2.80;;;;;;;;;;10022867;28;20088;-76
2022/07/13 08:42:49;;;;;;;5.20;2.08;;;;;;;;;;10032145;28;20064;-76
2022/07/13 08:47:45;;;;;;;7.00;2.88;;;;;;;;;;10030121;28;20069;-76
2022/07/13 08:52:41;;;;;;;2.90;2.05;;;;;;;;;;10032149;28;20120;-75
2022/07/13 08:57:37;;;;;;;2.33;2.00;;;;;;;;;;10031414;28;20057;-77
2022/07/13 09:02:31;;;;;;;5.35;2.03;;;;;;;;;;10029804;28;20050;-77
2022/07/13 09:07:26;;;;;;;2.78;1.67;;;;;;;;;;10033026;28;20107;-77
2022/07/13 09:12:24;;;;;;;2.47;1.77;;;;;;;;;;10029004;28;20057;-78
2022/07/13 09:17:31;;;;;;;5.65;2.38;;;;;;;;;;10002019;28;20097;-77
2022/07/13 09:22:24;;;;;;;1.83;1.30;;;;;;;;;;9999831;28;20077;-78
2022/07/13 09:27:20;;;;;;;3.65;2.33;;;;;;;;;;10003903;28;20046;-77
2022/07/13 09:32:15;;;;;;;6.18;2.60;;;;;;;;;;10000967;28;20465;-76
2022/07/13 09:37:09;;;;;;;2.38;1.60;;;;;;;;;;9999829;28;20043;-77
2022/07/13 09:42:03;;;;;;;5.45;2.08;;;;;;;;;;9997664;28;20053;-77
2022/07/13 09:47:05;;;;;;;2.50;1.95;;;;;;;;;;9995977;28;20046;-78
2022/07/13 09:52:11;;;;;;;2.55;1.50;;;;;;;;;;9996409;28;20059;-77
2022/07/13 09:57:07;;;;;;;3.00;1.50;;;;;;;;;;9997840;28;20042;-77
2022/07/13 10:02:03;;;;;;;4.30;1.50;;;;;;;;;;9998541;28;20059;-77
2022/07/13 10:06:58;;;;;;;2.83;1.30;;;;;;;;;;10019310;28;20053;-77
2022/07/13 10:11:51;;;;;;;5.15;1.45;;;;;;;;;;10032032;28;20053;-75
2022/07/13 10:16:45;;;;;;;2.88;1.55;;;;;;;;;;10030478;28;20104;-74
2022/07/13 10:21:53;;;;;;;2.10;1.52;;;;;;;;;;10040062;28;20072;-68
2022/07/13 10:26:48;;;;;;;5.35;1.77;;;;;;;;;;10028832;28;20500;-67
2022/07/13 10:31:43;;;;;;;2.10;1.60;;;;;;;;;;10025146;28;20046;-67
2022/07/13 10:36:49;;;;;;;5.45;1.67;;;;;;;;;;10026799;28;20471;-68
2022/07/13 10:41:59;;;;;;;3.92;1.23;;;;;;;;;;10024268;28;20101;-67
2022/07/13 10:46:55;;;;;;;2.95;1.30;;;;;;;;;;10027013;28;20054;-67
2022/07/13 10:51:49;;;;;;;6.65;1.98;;;;;;;;;;10015068;28;20136;-66
2022/07/13 10:57:14;;;;;;;6.50;1.20;;;;;;;;;;10025944;28;20101;-66
2022/07/13 11:03:06;;;;;;;3.58;2.05;;;;;;;;;;10030928;28;20129;-67
2022/07/13 11:08:14;;;;;;;8.00;1.20;;;;;;;;;;10024244;28;20061;-66
2022/07/13 11:13:24;;;;;;;3.72;1.10;;;;;;;;;;10022146;28;20084;-67
2022/07/13 11:18:34;;;;;;;3.90;1.30;;;;;;;;;;10025807;28;20054;-67
2022/07/13 11:29:10;;;;;;;3.00;1.15;;;;;;;;;;10022640;28;20045;-67
2022/07/13 11:34:04;;;;;;;0.90;0.90;;;;;;;;;;10021847;28;20798;-68
2022/07/13 11:38:58;;;;;;;2.47;1.13;;;;;;;;;;10027013;28;20125;-67
2022/07/13 11:43:53;;;;;;;1.10;1.00;;;;;;;;;;10027741;28;20081;-68
2022/07/13 11:48:48;;;;;;;5.18;1.30;;;;;;;;;;10024749;28;20470;-67
2022/07/13 11:53:43;;;;;;;4.45;1.20;;;;;;;;;;10030410;28;20077;-68
2022/07/13 11:58:45;;;;;;;1.33;0.85;;;;;;;;;;10022745;28;20107;-68
2022/07/13 12:03:40;;;;;;;2.10;1.90;;;;;;;;;;10018645;28;20093;-67
2022/07/13 12:08:35;;;;;;;3.40;1.20;;;;;;;;;;10045247;28;20067;-67
2022/07/13 12:13:35;;;;;;;3.23;0.97;;;;;;;;;;10058056;28;20049;-69
2022/07/13 12:18:29;;;;;;;4.82;1.65;;;;;;;;;;10038081;28;20042;-69
2022/07/13 12:23:22;;;;;;;2.50;1.15;;;;;;;;;;10027056;28;20038;-68
2022/07/13 12:28:16;;;;;;;1.52;0.90;;;;;;;;;;10014895;28;20049;-68
2022/07/13 12:33:10;;;;;;;3.53;1.50;;;;;;;;;;10029618;28;20050;-68
2022/07/13 12:38:08;;;;;;;1.13;1.02;;;;;;;;;;10033427;28;20137;-68
2022/07/13 12:43:01;;;;;;;3.60;0.95;;;;;;;;;;10032428;28;20049;-68
2022/07/13 12:47:56;;;;;;;1.33;0.95;;;;;;;;;;10033698;28;20100;-68
2022/07/13 12:53:03;;;;;;;2.20;1.55;;;;;;;;;;10021477;28;20049;-68
2022/07/13 12:57:57;;;;;;;1.05;0.77;;;;;;;;;;10052635;28;20056;-68
2022/07/13 13:02:51;;;;;;;1.15;1.00;;;;;;;;;;10041394;28;20085;-68
2022/07/13 13:07:46;;;;;;;2.80;0.85;;;;;;;;;;10045628;28;20152;-68
2022/07/13 13:12:41;;;;;;;2.80;0.82;;;;;;;;;;10051342;28;20056;-69
2022/07/13 13:17:35;;;;;;;1.10;1.00;;;;;;;;;;10057726;28;20427;-68
2022/07/13 13:22:28;;;;;;;5.75;1.13;;;;;;;;;;10039261;28;20061;-68
2022/07/13 13:27:23;;;;;;;1.38;0.90;;;;;;;;;;10046147;28;20045;-68
2022/07/13 13:32:37;;;;;;;2.47;1.00;;;;;;;;;;10039978;28;20089;-70
2022/07/13 13:37:31;;;;;;;3.55;0.98;;;;;;;;;;10005835;28;20058;-70
2022/07/13 13:42:24;;;;;;;3.40;0.90;;;;;;;;;;10009973;28;20107;-70
2022/07/13 13:47:38;;;;;;;1.58;1.00;;;;;;;;;;10018458;28;20077;-70
2022/07/13 13:52:32;;;;;;;1.00;0.90;;;;;;;;;;10008803;28;20053;-68
2022/07/13 13:57:26;;;;;;;4.18;1.40;;;;;;;;;;10019175;28;20072;-70
2022/07/13 14:02:20;;;;;;;3.60;0.95;;;;;;;;;;10017515;28;20112;-71
2022/07/13 14:07:14;;;;;;;1.85;0.88;;;;;;;;;;10014733;28;20136;-71
2022/07/13 14:12:08;;;;;;;5.20;1.92;;;;;;;;;;10015323;28;20046;-68
2022/07/13 14:17:03;;;;;;;1.10;0.73;;;;;;;;;;10017772;28;20499;-69
2022/07/13 14:21:57;;;;;;;1.35;0.95;;;;;;;;;;10029230;28;20504;-69
2022/07/13 14:26:50;;;;;;;3.78;0.88;;;;;;;;;;10008482;28;20544;-68
2022/07/13 14:31:57;;;;;;;3.40;0.95;;;;;;;;;;10017152;28;20053;-71
2022/07/13 14:37:11;;;;;;;7.45;0.90;;;;;;;;;;10014812;28;20038;-69
2022/07/13 14:42:04;;;;;;;1.95;0.95;;;;;;;;;;10015304;28;20061;-69
2022/07/13 14:46:59;;;;;;;4.07;0.90;;;;;;;;;;10027863;28;20378;-69
2022/07/13 14:51:54;;;;;;;1.60;0.90;;;;;;;;;;10024708;28;20505;-69
2022/07/13 14:56:54;;;;;;;2.35;1.10;;;;;;;;;;10027178;28;20049;-69
2022/07/13 15:01:48;;;;;;;6.43;1.35;;;;;;;;;;10025723;28;20062;-68
2022/07/13 15:06:44;;;;;;;1.35;0.90;;;;;;;;;;10024940;28;20409;-69
2022/07/13 15:11:38;;;;;;;1.17;1.02;;;;;;;;;;10030335;28;20061;-69
2022/07/13 15:16:31;;;;;;;2.90;0.70;;;;;;;;;;10025501;28;20054;-69
2022/07/13 15:21:26;;;;;;;8.70;1.00;;;;;;;;;;10026957;28;20054;-69
2022/07/13 15:26:20;;;;;;;0.98;0.80;;;;;;;;;;10022139;28;20396;-68
2022/07/13 15:31:15;;;;;;;1.98;1.50;;;;;;;;;;10025287;28;20100;-67
2022/07/13 15:36:09;;;;;;;4.03;1.05;;;;;;;;;;10021569;28;20081;-67
2022/07/13 15:46:14;;;;;;;4.22;0.90;;;;;;;;;;10018343;28;20048;-65
2022/07/13 15:51:09;;;;;;;1.85;0.80;;;;;;;;;;10027036;28;20058;-64
2022/07/13 15:56:05;;;;;;;2.60;1.30;;;;;;;;;;10018362;28;20374;-65
2022/07/13 16:00:59;;;;;;;1.60;1.00;;;;;;;;;;10025039;28;20448;-65
2022/07/13 16:05:56;;;;;;;0.95;0.90;;;;;;;;;;10026246;28;20076;-68
2022/07/13 16:10:50;;;;;;;4.00;1.20;;;;;;;;;;10021739;28;20050;-65
2022/07/13 16:15:44;;;;;;;0.75;0.75;;;;;;;;;;10026628;28;20056;-64
2022/07/13 16:20:38;;;;;;;2.28;0.82;;;;;;;;;;10025635;28;20129;-64
2022/07/13 16:25:33;;;;;;;1.17;0.77;;;;;;;;;;10021348;28;20092;-65
2022/07/13 16:30:27;;;;;;;1.08;1.00;;;;;;;;;;10007260;28;20050;-64
2022/07/13 16:35:22;;;;;;;3.15;0.90;;;;;;;;;;9999230;28;20402;-65
2022/07/13 16:40:16;;;;;;;6.40;1.10;;;;;;;;;;10014064;28;20057;-64
2022/07/13 16:45:11;;;;;;;1.13;0.80;;;;;;;;;;10001266;28;20097;-64
2022/07/13 16:50:06;;;;;;;1.83;1.33;;;;;;;;;;10005617;28;20108;-64
2022/07/13 16:55:00;;;;;;;5.93;1.00;;;;;;;;;;10009019;28;20062;-63
2022/07/13 16:59:53;;;;;;;1.02;0.73;;;;;;;;;;10000989;28;20093;-65
2022/07/13 17:04:48;;;;;;;3.63;1.20;;;;;;;;;;9999425;28;20061;-65
2022/07/13 17:09:42;;;;;;;4.97;0.98;;;;;;;;;;9998996;28;20421;-65
2022/07/13 17:14:36;;;;;;;0.88;0.88;;;;;;;;;;9996417;28;20514;-65
2022/07/13 17:19:31;;;;;;;1.88;1.10;;;;;;;;;;10001196;28;20141;-65
2022/07/13 17:24:24;;;;;;;3.58;1.15;;;;;;;;;;9999552;28;20129;-67
2022/07/13 17:29:19;;;;;;;2.28;1.00;;;;;;;;;;10002241;28;20145;-66
2022/07/13 17:34:14;;;;;;;4.28;1.08;;;;;;;;;;9999326;28;20517;-66
2022/07/13 17:39:09;;;;;;;1.52;0.75;;;;;;;;;;10000209;28;20137;-68
2022/07/13 17:44:03;;;;;;;5.15;0.85;;;;;;;;;;10035239;28;20041;-68
2022/07/13 17:48:58;;;;;;;1.13;0.80;;;;;;;;;;10062241;28;20099;-67
2022/07/13 17:53:52;;;;;;;1.00;0.90;;;;;;;;;;10032293;28;20113;-67
2022/07/13 17:58:46;;;;;;;1.98;1.15;;;;;;;;;;10044776;28;20069;-67
2022/07/13 18:03:41;;;;;;;1.35;1.15;;;;;;;;;;10032933;28;20121;-67
2022/07/13 18:08:35;;;;;;;7.70;1.67;;;;;;;;;;10032043;28;20046;-67
2022/07/13 18:13:29;;;;;;;2.63;1.30;;;;;;;;;;10012467;28;20054;-66
2022/07/13 18:18:24;;;;;;;3.88;1.42;;;;;;;;;;9997856;28;20045;-66
2022/07/13 18:28:30;;;;;;;2.70;1.13;;;;;;;;;;10009685;28;20058;-66
2022/07/13 18:33:24;;;;;;;2.05;1.00;;;;;;;;;;10020703;28;20085;-66
2022/07/13 18:38:18;;;;;;;3.75;2.03;;;;;;;;;;10009575;28;20050;-66
2022/07/13 18:43:13;;;;;;;1.08;0.98;;;;;;;;;;10016210;28;20054;-64
2022/07/13 18:48:07;;;;;;;2.13;1.40;;;;;;;;;;10024012;28;20409;-64
2022/07/13 18:53:01;;;;;;;3.33;1.48;;;;;;;;;;10018228;28;20057;-63
2022/07/13 18:57:55;;;;;;;2.10;1.33;;;;;;;;;;10016759;28;20072;-67
2022/07/13 19:02:49;;;;;;;5.25;1.60;;;;;;;;;;10013070;28;20066;-67
2022/07/13 19:07:44;;;;;;;4.07;1.50;;;;;;;;;;10012505;28;20137;-65
2022/07/13 19:12:39;;;;;;;3.63;1.20;;;;;;;;;;10016069;28;20057;-67
2022/07/13 19:17:33;;;;;;;1.48;0.93;;;;;;;;;;10004245;28;20059;-64
2022/07/13 19:22:27;;;;;;;3.55;1.52;;;;;;;;;;10010541;28;20050;-66
2022/07/13 19:27:21;;;;;;;4.50;1.50;;;;;;;;;;10005889;28;20377;-69
2022/07/13 19:32:16;;;;;;;1.25;1.13;;;;;;;;;;10018848;28;20064;-67
2022/07/13 19:37:11;;;;;;;5.45;1.30;;;;;;;;;;10032154;28;20041;-67
2022/07/13 19:42:04;;;;;;;4.35;1.58;;;;;;;;;;10027883;28;20129;-65
2022/07/13 19:46:59;;;;;;;1.70;1.30;;;;;;;;;;10029664;28;20046;-69
2022/07/13 19:51:53;;;;;;;3.75;1.20;;;;;;;;;;10025809;28;21863;-66
2022/07/13 19:56:46;;;;;;;6.45;1.40;;;;;;;;;;10024977;28;20428;-67
2022/07/13 20:01:40;;;;;;;4.95;1.70;;;;;;;;;;10021123;28;20064;-65
2022/07/13 20:06:34;;;;;;;6.93;2.53;;;;;;;;;;10026618;28;20128;-65
2022/07/13 20:11:28;;;;;;;4.53;4.05;;;;;;;;;;10030750;28;20170;-65
2022/07/13 20:16:23;;;;;;;7.68;2.42;;;;;;;;;;10034640;28;20141;-67
2022/07/13 20:21:17;;;;;;;4.88;2.28;;;;;;;;;;10031972;28;20133;-66
2022/07/13 20:26:12;;;;;;;8.40;1.70;;;;;;;;;;10011541;28;20055;-66
2022/07/13 20:31:07;;;;;;;9.65;3.03;;;;;;;;;;10025262;28;20092;-66
2022/07/13 20:36:05;;;;;;;9.25;3.05;;;;;;;;;;10030984;28;20124;-67
2022/07/13 20:40:59;;;;;;;;;;;;;;;;;;10040604;28;20052;-67
2022/07/13 20:45:55;;;;;;;4.40;2.15;;;;;;;;;;10023235;28;19928;-66
2022/07/13 20:50:49;;;;;;;5.47;1.73;;;;;;;;;;10021718;28;20042;-66
2022/07/13 20:55:44;;;;;;;9.23;2.30;;;;;;;;;;10041382;28;20041;-65
2022/07/13 21:00:39;;;;;;;7.07;2.15;;;;;;;;;;10037534;28;20128;-66
2022/07/13 21:05:33;;;;;;;2.88;2.05;;;;;;;;;;10041720;28;20081;-67
2022/07/13 21:10:32;;;;;;;5.00;2.47;;;;;;;;;;10023461;28;20045;-65
2022/07/13 21:15:27;;;;;;;8.15;2.78;;;;;;;;;;10041740;28;20477;-65
2022/07/13 21:20:22;;;;;;;5.47;2.65;;;;;;;;;;10032756;28;20046;-67
2022/07/13 21:30:32;;;;;;;27.10;4.38;;;;;;;;;;10007350;28;20456;-66
2022/07/13 21:35:26;;;;;;;10.23;2.40;;;;;;;;;;10020913;28;20046;-65
2022/07/13 21:40:20;;;;;;;8.48;2.47;;;;;;;;;;10034390;28;20042;-66
2022/07/13 21:45:14;;;;;;;3.30;2.47;;;;;;;;;;10021954;28;20045;-65
2022/07/13 21:50:08;;;;;;;12.82;2.70;;;;;;;;;;10023076;28;20064;-66
2022/07/13 21:55:04;;;;;;;5.78;2.05;;;;;;;;;;10028141;28;20080;-66
2022/07/13 21:59:57;;;;;;;7.65;2.35;;;;;;;;;;10026756;28;20065;-66
2022/07/13 22:05:09;;;;;;;9.32;2.80;;;;;;;;;;10029174;28;20054;-66
2022/07/13 22:10:40;;;;;;;4.95;2.70;;;;;;;;;;10028363;28;20046;-66
2022/07/13 22:16:11;;;;;;;5.80;2.65;;;;;;;;;;10023520;28;20054;-66
2022/07/13 22:21:42;;;;;;;4.90;2.42;;;;;;;;;;10041948;28;20041;-66
2022/07/13 22:27:12;;;;;;;5.32;1.90;;;;;;;;;;10033100;28;20057;-66
2022/07/13 22:32:44;;;;;;;3.85;2.20;;;;;;;;;;10040718;28;20441;-67
2022/07/13 22:38:34;;;;;;;2.20;2.00;;;;;;;;;;10067737;28;20050;-66
2022/07/13 22:44:05;;;;;;;7.38;2.50;;;;;;;;;;10058654;28;20468;-65
2022/07/13 22:49:35;;;;;;;3.35;1.67;;;;;;;;;;10051106;28;20050;-66
2022/07/13 22:55:05;;;;;;;3.30;1.88;;;;;;;;;;10042822;28;20056;-67
2022/07/13 23:00:37;;;;;;;2.97;2.15;;;;;;;;;;10049063;28;20058;-67
2022/07/13 23:06:07;;;;;;;6.18;2.63;;;;;;;;;;10024389;28;20064;-68
2022/07/13 23:11:38;;;;;;;2.20;1.65;;;;;;;;;;10029172;28;20050;-68
2022/07/13 23:17:08;;;;;;;4.38;2.45;;;;;;;;;;10025794;28;20092;-67
2022/07/13 23:22:40;;;;;;;5.82;1.88;;;;;;;;;;10029858;28;20050;-67
2022/07/13 23:28:10;;;;;;;6.80;2.10;;;;;;;;;;10019294;28;20058;-67
2022/07/13 23:33:05;;;;;;;3.80;1.73;;;;;;;;;;10004444;28;20057;-67
2022/07/13 23:37:59;;;;;;;4.20;1.92;;;;;;;;;;10016515;28;20155;-67
2022/07/13 23:42:54;;;;;;;4.45;1.83;;;;;;;;;;10010016;28;20053;-67
2022/07/13 23:47:48;;;;;;;3.88;1.80;;;;;;;;;;10023589;28;20493;-67
2022/07/13 23:52:42;;;;;;;5.30;2.28;;;;;;;;;;10003055;28;20129;-67
2022/07/13 23:57:36;;;;;;;3.67;1.98;;;;;;;;;;10004813;28;20054;-66
